Pacific Santa Ana — A8WI3 — position and weather

sailwx.info

Track history (hours):
 
Tides and Currents Weather Stations Pressure Air Temp Water Temp Dewpoint Dewpoint Depression Visibility Wind Speed Wind Dir Waves Ship Positions

Pacific Santa Ana

Last reported at 2017-Nov-11 06:50 UTC. Time now 2017-Nov-22 10:48 UTC.
Position N 26°14' W 079°22'.
Warning: this ship's position is 11 days out of date.

Length 228 m; draft 15.5 m.

Type: Ship. MMSI: 636014748.

Date/timePositionNaut miles runAvg speedWind from/ knotsBaromVisibWave heightAir tempDewpointWater temp
2017-Nov-11 06:50N 26°14' W 079°22'3 9.0
2017-Nov-11 06:30N 26°12' W 079°24'5 9.2
2017-Nov-11 06:00N 26°08' W 079°28'5 9.5
2017-Nov-11 05:30N 26°04' W 079°30'510.0
2017-Nov-11 04:59N 25°59' W 079°33'510.0
2017-Nov-11 04:30N 25°55' W 079°35'510.0
2017-Nov-11 04:00N 25°51' W 079°38'510.3
2017-Nov-11 03:30N 25°46' W 079°41'510.7
2017-Nov-11 03:00N 25°42' W 079°44'511.0
2017-Nov-11 02:30N 25°37' W 079°46'611.2
2017-Nov-11 02:00N 25°32' W 079°49'611.3
2017-Nov-11 01:30N 25°27' W 079°52'611.5
2017-Nov-11 01:00N 25°22' W 079°55'611.3
2017-Nov-11 00:30N 25°16' W 079°58'511.0
2017-Nov-11 00:00N 25°12' W 080°01'610.9
2017-Nov-10 23:30N 25°07' W 080°04'510.7
2017-Nov-10 22:59N 25°02' W 080°07'510.7
2017-Nov-10 22:29N 24°58' W 080°10'  
Track history (hours):
 
Tides and Currents Weather Stations Pressure Air Temp Water Temp Dewpoint Dewpoint Depression Visibility Wind Speed Wind Dir Waves Ship Positions

Pacific Santa Ana

Last reported at 2017-Nov-11 06:50 UTC. Time now 2017-Nov-22 10:48 UTC.
Position N 26°14' W 079°22'.
Warning: this ship's position is 11 days out of date.

Length 228 m; draft 15.5 m.

Type: Ship. MMSI: 636014748.

Date/timePositionNaut miles runAvg speedWind from/ knotsBaromVisibWave heightAir tempDewpointWater temp
2017-Nov-11 06:50N 26°14' W 079°22'3 9.0
2017-Nov-11 06:30N 26°12' W 079°24'5 9.2
2017-Nov-11 06:00N 26°08' W 079°28'5 9.5
2017-Nov-11 05:30N 26°04' W 079°30'510.0
2017-Nov-11 04:59N 25°59' W 079°33'510.0
2017-Nov-11 04:30N 25°55' W 079°35'510.0
2017-Nov-11 04:00N 25°51' W 079°38'510.3
2017-Nov-11 03:30N 25°46' W 079°41'510.7
2017-Nov-11 03:00N 25°42' W 079°44'511.0
2017-Nov-11 02:30N 25°37' W 079°46'611.2
2017-Nov-11 02:00N 25°32' W 079°49'611.3
2017-Nov-11 01:30N 25°27' W 079°52'611.5
2017-Nov-11 01:00N 25°22' W 079°55'611.3
2017-Nov-11 00:30N 25°16' W 079°58'511.0
2017-Nov-11 00:00N 25°12' W 080°01'610.9
2017-Nov-10 23:30N 25°07' W 080°04'510.7
2017-Nov-10 22:59N 25°02' W 080°07'510.7
2017-Nov-10 22:29N 24°58' W 080°10'  

Dump ship's entire track history